Terminal Aerodrome Forecast
Issued by NWS Boise, ID

Home | Current Version | Previous Version | Text Only | Print | Product List | Glossary On
Versions: 1 2 3 4 5 6 7 8 9 10 11 12 13 14 15 16 17
000
FTUS45 KBOI 252331
TAFBOI
TAF
KBOI 252331Z 2600/2624 14006KT P6SM BKN150
     FM260300 12012KT P6SM VCSH SCT060 BKN100
     FM261000 33010KT P6SM -SHRA BKN050 OVC080
     FM261500 30010KT P6SM VCSH SCT050 BKN080
     FM261900 31012G22KT P6SM SCT080 BKN150=

USA.gov is the U.S. government's official web portal to all federal, state and local government web resources and services.